For quick login in and fast entrance.
M’enregistrer FAQ Connexion 
Poster un nouveau sujet Répondre au sujet  [ 198 messages ]  Aller à la page 1, 2, 3, 4, 5 ... 14  Suivante

Lun 29 Oct 2018 04:13

 Un avion de Lion Air s'écrase après son décollage de Jakarta
MessagePosté: Lun 29 Oct 2018 04:13 
Hors ligne
Réparateur de Dirigeable
Réparateur de Dirigeable
Avatar de l’utilisateur

Inscription: Sam 30 Juil 2011 00:53
Indonesian plane crash – Lion Air flight crashes 10 minutes after taking off from capital Jakarta
The Lion Air jet crashed in Indonesia while flying from Jakarta to Pangkalpinang, according to the nation’s rescue agency

A PASSENGER plane has crashed into the sea shortly after take-off from Jakarta, Indonesia.

The Lion Air flight between Jakarta and Pangkal Pinang lost contact with air traffic control early Monday morning, search and rescue officials in the country have said.

The Lion Air flight from Jakarta to Pangkal Pinang crashed after take off according to reports
Yusuf Latif, a spokesman for Indonesia's search and rescue agency said: "It has been confirmed that it has crashed."

The plane lost contact 13 minutes after takeoff, according to the official.

The aircraft is said to be a Boeing-737 Max 8, which can hold up to 210 passengers.

Lion Air says confirmed it lost contact with the passenger jet flying to the island off Sumatra.

It was not immediately clear how many people were on board.

Edward Sirait, chief executive of Lion Air Group said: "We cannot give any comment at this moment."

https://www.thesun.co.uk/news/worldnews ... f-jakarta/

_________________
Ni pour, ni contre..... Bien au contraire !


Modifié en dernier par Chris HK le Lun 29 Oct 2018 04:17, modifié 1 fois.

  
home Haut
 Profil  
Répondre en citant le message  
Aider le Site avec PayPal

Lun 29 Oct 2018 04:16

 Re: Crash d'un B737 de Lion Air 10mns après décollage
MessagePosté: Lun 29 Oct 2018 04:16 
Hors ligne
Réparateur de Dirigeable
Réparateur de Dirigeable
Avatar de l’utilisateur

Inscription: Sam 30 Juil 2011 00:53
Accident d'avion indonésien - Le vol Lion Air s'écrase 10 minutes après son décollage de la capitale Jakarta
L’avion Lion Air s’est écrasé en Indonésie alors qu’il volait de Jakarta à Pangkalpinang, selon l’agence de sauvetage du pays

Un avion PASSENGER s'est écrasé dans la mer peu après le décollage de Jakarta, en Indonésie.

Le vol Lion Air entre Jakarta et Pangkal Pinang a perdu le contact avec le contrôle du trafic aérien lundi matin, ont annoncé des responsables de la recherche et du sauvetage dans le pays.

Selon des informations, le vol Lion Air entre Jakarta et Pangkal Pinang s'est écrasé après le décollage
Yusuf Latif, un porte-parole de l'agence de recherche et de sauvetage indonésienne, a déclaré: "Il a été confirmé qu'il s'était écrasé".

L'avion a perdu contact 13 minutes après le décollage, selon un responsable.

L’appareil serait un Boeing-737 Max 8, pouvant accueillir jusqu’à 210 passagers.

Lion Air a confirmé avoir perdu contact avec l'avion à réaction volant vers l'île au large de Sumatra.

On ne sait pas combien de personnes étaient à bord.

Edward Sirait, directeur général de Lion Air Group, a déclaré: "Nous ne pouvons faire aucun commentaire pour le moment."

_________________
Ni pour, ni contre..... Bien au contraire !


  
home Haut
 Profil  
Répondre en citant le message  

Lun 29 Oct 2018 04:21

 Re: Crash d'un B737 de Lion Air 10mns après décollage
MessagePosté: Lun 29 Oct 2018 04:21 
Hors ligne
Réparateur de Dirigeable
Réparateur de Dirigeable
Avatar de l’utilisateur

Inscription: Sam 29 Nov 2008 17:35
Localisation: BOD
Encore Lion....

_________________
Principalement KLM et hub d' Amsterdam


  
home Haut
 Profil  
Répondre en citant le message  

Lun 29 Oct 2018 04:55

 Re: Crash d'un B737 de Lion Air 10mns après décollage
MessagePosté: Lun 29 Oct 2018 04:55 
Hors ligne
Réparateur de Dirigeable
Réparateur de Dirigeable
Avatar de l’utilisateur

Inscription: Sam 30 Juil 2011 00:53
Il y avait 188 personnes à bord, et l'avion était tout neuf.

Citation:
Lion Air crash: officials say 188 onboard lost flight JT610 – latest updates
Boeing passenger plane carrying 188 people went down shortly after take-off from Indonesian capital

Boeing have confirmed they are aware of the crash.
Boeing is aware of reports of an airplane accident and is closely monitoring the situation.
The model – a Boeing 737 MAX 8 – was a newly launched replacement for the commonly-used 737, and was first introduced globally in 2017.

The Lion Air plane that crashed today had only been delivered to the airline two months ago in August.

Preliminary data from Flightradar24 shows the plane went through a sharp drive towards the sea, according to Reuters.

“The aircraft climbed to around 5,000 feet (1,524 m) before losing, and then regaining, height, before finally falling towards the sea. It was last recorded at 3,650 feet (1,113 m) and its speed had risen to 345 knots,” the agency reported.

Muhmmad Syaugi, the head of the search and rescue agency said: “We don’t know yet whether there are any survivors. We hope, we pray, but we cannot confirm.”

188 people were on board
It is now confirmed by Indonesian authorities that there were 188 people on board, including crew.

That number is made up of:

178 adult passengers
1 child
2 babies
2 pilots and 5 flight attendants
Sutopo Purwo Nugroho, the spokesman for Indonesia’s disaster relief agency, tweeted this information earlier. It clarifies initial reports of 178 people – this was the number of adult passengers, not including crew and children.


https://www.theguardian.com/world/live/ ... ight-jt610

_________________
Ni pour, ni contre..... Bien au contraire !


  
home Haut
 Profil  
Répondre en citant le message  

Lun 29 Oct 2018 06:20

 Re: Crash d'un B737 de Lion Air 10mns après décollage
MessagePosté: Lun 29 Oct 2018 06:20 
Hors ligne
Principicule de Taxiway
Principicule de Taxiway

Inscription: Dim 06 Déc 2015 16:32
Livré en août.


_________________
"Ce que tu dis n'a aucun sens"


  
home Haut
 Profil  
Répondre en citant le message  

Lun 29 Oct 2018 06:28

 Re: Crash d'un B737 de Lion Air 10mns après décollage
MessagePosté: Lun 29 Oct 2018 06:28 
Hors ligne

Inscription: Mer 30 Juil 2008 16:32
Localisation: Irlande
Apparement un appareil flambant neuf... immatriculé PK-LQP livré mi-août 2018 à lion. (Premier vol le 30/07/2018)


  
home Haut
 Profil  
Répondre en citant le message  

Lun 29 Oct 2018 07:01

 Re: Crash d'un B737 de Lion Air 10mns après décollage
MessagePosté: Lun 29 Oct 2018 07:01 
Hors ligne
Principicule de Taxiway
Principicule de Taxiway

Inscription: Dim 06 Déc 2015 16:32
Présence de 20 officiels indonésiens selon le ministère des finances

_________________
"Ce que tu dis n'a aucun sens"


  
home Haut
 Profil  
Répondre en citant le message  

Lun 29 Oct 2018 08:04

 Re: Crash d'un B737 de Lion Air 10mns après décollage
MessagePosté: Lun 29 Oct 2018 08:04 
Hors ligne
Gonfleur d'Hélice
Gonfleur d'Hélice
Avatar de l’utilisateur

Inscription: Mar 18 Avr 2006 22:02
Localisation: Salon-de-Provence
Des détails sur le profil du vol.
https://www.flightradar24.com/blog/flig ... ght-jt610/

_________________
Un jour ,un jour viendra où le jour ne viendra pas !


  
home Haut
 Profil  
Répondre en citant le message  

Lun 29 Oct 2018 08:06

 Re: Crash d'un B737 de Lion Air 10mns après décollage
MessagePosté: Lun 29 Oct 2018 08:06 
Hors ligne

Inscription: Dim 14 Sep 2008 15:29
Le pilote totalisait 6000 h de vol et 5000 pour co-pilote...


  
home Haut
 Profil  
Répondre en citant le message  

Lun 29 Oct 2018 08:20

 Re: Crash d'un B737 de Lion Air 10mns après décollage
MessagePosté: Lun 29 Oct 2018 08:20 
Hors ligne
Principicule de Taxiway
Principicule de Taxiway

Inscription: Dim 06 Déc 2015 16:32
Le directeur général de Lion Air, Edward Sirait annonce que le Boeing 737 MAX 8 impliqué dans le crash avait connu un problème technique lors de son précédent vol (samedi soir entre Denpasar & Jakarta).

La répartition a été effectuée selon les procédures standards de Boeing.

_________________
"Ce que tu dis n'a aucun sens"


  
home Haut
 Profil  
Répondre en citant le message  

Lun 29 Oct 2018 08:34

 Re: Crash d'un B737 de Lion Air 10mns après décollage
MessagePosté: Lun 29 Oct 2018 08:34 
Hors ligne
Petit Nouveau
Avatar de l’utilisateur

Inscription: Mer 07 Déc 2016 18:17
Messages: 2
DECKSOLO a écrit:
Le pilote totalisait 6000 h de vol et 5000 pour co-pilote...


Bonjour, vous avez eu des infos sur l'équipage? J'ai une connaissance FO sur Lion Air, je m'inquiète depuis ce matin...


  
home Haut
 Profil  
Répondre en citant le message  

Lun 29 Oct 2018 08:49

 Re: Crash d'un B737 de Lion Air 10mns après décollage
MessagePosté: Lun 29 Oct 2018 08:49 
Hors ligne
Principicule de Taxiway
Principicule de Taxiway
Avatar de l’utilisateur

Inscription: Ven 27 Sep 2013 12:37
Localisation: LFBO
La météo n'etait pas mauvaise, même si quelques nuages bas.

METAR:
SA 29/10/2018 03:30->
METAR WIII 290330Z VRB04KT 8000 SCT020 32/23 Q1010 NOSIG=
SA 29/10/2018 03:00->
METAR WIII 290300Z VRB03KT 8000 SCT020 31/24 Q1011 NOSIG=
SA 29/10/2018 02:30->
METAR WIII 290230Z VRB03KT 9000 SCT020 30/25 Q1011 NOSIG=
SA 29/10/2018 02:00->
METAR WIII 290200Z VRB03KT 9000 SCT020 29/25 Q1011 NOSIG=
SA 29/10/2018 01:30->
METAR WIII 290130Z VRB04KT 8000 SCT020 29/25 Q1011 NOSIG=
SA 29/10/2018 01:00->
METAR WIII 290100Z VRB03KT 8000 SCT020 28/25 Q1011 NOSIG=
SA 29/10/2018 00:30->
METAR WIII 290030Z VRB03KT 8000 SCT020 27/25 Q1011 NOSIG=
SA 29/10/2018 00:00->
METAR WIII 290000Z VRB03KT 8000 SCT020 27/25 Q1011 NOSIG=
SA 28/10/2018 23:30->

METAR WIII 282330Z 16003KT 8000 SCT020 27/25 Q1010 NOSIG=
SA 28/10/2018 23:00->
METAR WIII 282300Z VRB02KT 8000 BKN022 26/25 Q1009 NOSIG=
SA 28/10/2018 22:30->
METAR WIII 282230Z VRB04KT 8000 SCT020 26/25 Q1009 NOSIG=
SA 28/10/2018 22:00->
METAR WIII 282200Z VRB04KT 9000 SCT020 26/25 Q1009 NOSIG=
SA 28/10/2018 21:30->
METAR WIII 282130Z 17004KT 9000 SCT020 26/25 Q1009 NOSIG=
SA 28/10/2018 21:00->
METAR WIII 282100Z 13004KT 9000 SCT020 26/25 Q1009 NOSIG=


  
home Haut
 Profil  
Répondre en citant le message  

Lun 29 Oct 2018 09:11

 Re: Un avion de Lion Air s'écrase après son décollage de Jakarta
MessagePosté: Lun 29 Oct 2018 09:11 
Hors ligne
Amiral de l'Air
Avatar de l’utilisateur

Inscription: Mer 03 Juin 2009 14:15
Date: lundi 29 octobre 2018

Type/Sous-type: Boeing 737 MAX 8
Compagnie: Lion Air
Immatriculation: PK-LQP
Numéro de série: 43000/7058
Année de Fabrication: 2018-07-30 (3 mois)

Equipage: victimes: / à bord:
Passagers: victimes: / à bord:
Total: victimes: / à bord: 188
Dégats de l'appareil: Perte Totale
Conséquences: Written off (damaged beyond repair)

Lieu de l'accident: N off Jakarta ( Indonésie)
Phase de vol: En vol (ENR)
Nature: Transport de Passagers Nat.

Aéroport de départ: Jakarta-Soekarno-Hatta International Airport (CGK/WIII), Indonésie
Aéroport de destination: Pangkal Pinang Airport (PGK/WIKK), Indonésie

Image

Image

Image

https://twitter.com/TomPodolec/status/1 ... 7295075328


Citation:

Résumé

Avec cela, nous fermons les mises à jour en direct pour aujourd'hui. On estime que le vol JT610 de Lion Air s’est écrasé il y a huit heures.

Voici ce que nous savons jusqu'à présent:

Le vol JT610 de Lion Air s’est écrasé, 13 minutes après le décollage, dans la mer au large de Jakarta vers 6 h 30, heure locale.

189 personnes étaient à bord, y compris les passagers et l'équipage. 20 des passagers étaient des fonctionnaires indonésiens, selon le département des finances.

Le vol de la compagnie à bas coût voyageait de Jakarta à Pangkal Pinang en Indonésie.

Il n'y a eu aucune indication de pertes et une opération de recherche et sauvetage est toujours en cours.
L'avion était un nouveau modèle - un Boeing 737 MAX 8 - et n'était utilisé que depuis 2 mois. Le pilote a demandé à retourner à l'aéroport peu de temps avant l'accident.

Le PDG de Lion Air a déclaré que le même avion avait signalé un "problème technique" dimanche soir, mais avait été autorisé à voler lundi. Il a déclaré qu'il ne clouera pas au sol pas les autres MAX 8 de la flotte de Lion Air.

La balise de détresse n'a pas émis d'appel de détresse , bien qu'elle ait été certifiée pour fonctionner jusqu'en août 2019.

Les sauveteurs ont diffusé des images de débris d'avion et d'objets personnels flottant dans l'eau sur le lieu de l'accident. Ils ont trouvé des sacs à main , des vêtements, des téléphones portables , des cartes d'identité et des permis de conduire .

Les responsables indonésiens disent qu'ils ne spéculeront pas sur la cause de l'accident tant que les boîtes noires n'auront pas été trouvées.

https://www.theguardian.com/world/live/ ... are_btn_tw


_________________
Image


Modifié en dernier par Iceman 29 le Lun 29 Oct 2018 09:24, modifié 1 fois.

  
home Haut
 Profil  
Répondre en citant le message  

Lun 29 Oct 2018 09:21

 Re: Un avion de Lion Air s'écrase après son décollage de Jakarta
MessagePosté: Lun 29 Oct 2018 09:21 
Hors ligne
Observateur Avisé
Observateur Avisé
Avatar de l’utilisateur

Inscription: Lun 08 Juin 2009 17:35
Localisation: Dans les cieux !
Infos AFP !

Image

_________________
Un voyage en avion, c'est une manière laïque de croire au ciel et de s'en remettre à lui (Bernard Pivot)


  
home Haut
 Profil  
Répondre en citant le message  

Lun 29 Oct 2018 09:28

 Re: Un avion de Lion Air s'écrase après son décollage de Jakarta
MessagePosté: Lun 29 Oct 2018 09:28 
Hors ligne
Modérateur
Modérateur
Avatar de l’utilisateur

Inscription: Mar 23 Aoû 2005 07:23
Localisation: Paris
image

image

image

_________________
Retrouvez toutes les informations sur le flash-info du site et l'application pour iPhone
Image


  
home Haut
 Profil  
Répondre en citant le message  
Afficher les messages postés depuis:  Trier par  
Poster un nouveau sujet Répondre au sujet  [ 198 messages ]  Aller à la page 1, 2, 3, 4, 5 ... 14  Suivante

Heures au format UTC + 1 heure


Qui est en ligne

Utilisateurs parcourant ce forum: Aucun utilisateur enregistré et 0 invités


Vous ne pouvez pas poster de nouveaux sujets
Vous ne pouvez pas répondre aux sujets
Vous ne pouvez pas éditer vos messages
Vous ne pouvez pas supprimer vos messages

Aller à:  
Flux RSS Flux RSS Liste des flux Liste des flux
0 Développé par phpBB® Forum Software © phpBB Group
Traduction par phpBB-fr.com
phpBB SEO